createdAt,value
2023-05-05T00:02:05.232Z,99660.38
2023-05-05T00:04:32.752Z,99662.84
2023-05-05T00:07:00.452Z,99659.50
2023-05-05T00:09:27.956Z,99664.88
2023-05-05T00:11:55.446Z,99666.06
2023-05-05T00:14:24.267Z,99660.06
2023-05-05T00:16:52.458Z,99657.13
2023-05-05T00:19:19.998Z,99658.47
2023-05-05T00:21:47.486Z,99657.72
2023-05-05T00:24:14.984Z,99658.56
2023-05-05T00:26:42.467Z,99650.66
2023-05-05T00:29:09.928Z,99650.09
2023-05-05T00:31:38.872Z,99659.06
2023-05-05T00:34:06.405Z,99657.81
2023-05-05T00:36:34.280Z,99653.22
2023-05-05T00:39:01.767Z,99648.84
2023-05-05T00:41:29.252Z,99663.91
2023-05-05T00:43:56.728Z,99655.81
2023-05-05T00:46:26.021Z,99657.03
2023-05-05T00:48:55.871Z,99652.38
2023-05-05T00:51:25.025Z,99648.19
2023-05-05T00:53:52.659Z,99649.91
2023-05-05T00:56:21.927Z,99652.34
2023-05-05T00:58:50.159Z,99648.69
2023-05-05T01:01:18.884Z,99645.75
2023-05-05T01:03:46.655Z,99643.91
2023-05-05T01:06:37.124Z,99642.56
2023-05-05T01:09:12.783Z,99643.31
2023-05-05T01:11:46.282Z,99651.53
2023-05-05T01:14:16.969Z,99655.03
2023-05-05T01:16:56.987Z,99649.91
2023-05-05T01:19:50.232Z,99651.16
2023-05-05T01:22:24.225Z,99657.22
2023-05-05T01:25:11.333Z,99657.59
2023-05-05T01:27:50.670Z,99661.53
2023-05-05T01:30:35.837Z,99664.94
2023-05-05T01:33:07.677Z,99658.81
2023-05-05T01:35:41.544Z,99653.84
2023-05-05T01:38:15.397Z,99652.97
2023-05-05T01:40:47.923Z,99659.88
2023-05-05T01:43:19.828Z,99663.44
2023-05-05T01:45:49.593Z,99645.25
2023-05-05T01:48:21.302Z,99660.66
2023-05-05T01:50:50.853Z,99669.34
2023-05-05T01:53:21.140Z,99667.72
2023-05-05T01:55:50.276Z,99665.16
2023-05-05T01:58:18.487Z,99665.41
2023-05-05T02:00:48.025Z,99666.56
2023-05-05T02:03:18.740Z,99661.78
2023-05-05T02:05:49.331Z,99669.69
2023-05-05T02:08:17.522Z,99667.81
2023-05-05T02:10:45.832Z,99669.81
2023-05-05T02:13:15.345Z,99673.84
2023-05-05T02:15:44.961Z,99675.81
2023-05-05T02:18:13.247Z,99682.47
2023-05-05T02:20:42.191Z,99688.06
2023-05-05T02:23:10.011Z,99686.50
2023-05-05T02:25:41.001Z,99683.19
2023-05-05T02:28:14.077Z,99690.56
2023-05-05T02:30:42.160Z,99680.63
2023-05-05T02:33:12.594Z,99678.03
2023-05-05T02:35:42.957Z,99679.53
2023-05-05T02:38:17.248Z,99687.69
2023-05-05T02:40:47.512Z,99692.03
2023-05-05T02:43:20.674Z,99686.88
2023-05-05T02:45:48.318Z,99683.47
2023-05-05T02:48:15.939Z,99689.47
2023-05-05T02:50:44.770Z,99695.06
2023-05-05T02:53:12.345Z,99699.59
2023-05-05T02:55:44.828Z,99699.13
2023-05-05T02:58:21.377Z,99704.28
2023-05-05T03:00:56.678Z,99712.34
2023-05-05T03:03:31.607Z,99716.66
2023-05-05T03:06:03.463Z,99721.53
2023-05-05T03:08:37.752Z,99720.34
2023-05-05T03:11:07.782Z,99720.56
2023-05-05T03:13:37.656Z,99721.81
2023-05-05T03:16:08.238Z,99721.56
2023-05-05T03:18:38.384Z,99722.91
2023-05-05T03:21:08.923Z,99724.63
2023-05-05T03:23:37.037Z,99724.47
2023-05-05T03:26:04.621Z,99724.34
2023-05-05T03:28:32.172Z,99728.91
2023-05-05T03:30:59.750Z,99725.59
2023-05-05T03:33:27.211Z,99719.47
2023-05-05T03:35:54.677Z,99725.81
2023-05-05T03:38:23.493Z,99724.84
2023-05-05T03:40:50.950Z,99724.34
2023-05-05T03:43:19.479Z,99737.59
2023-05-05T03:45:46.948Z,99727.28
2023-05-05T03:48:14.484Z,99721.16
2023-05-05T03:50:41.934Z,99729.50
2023-05-05T03:53:09.363Z,99724.22
2023-05-05T03:55:38.269Z,99723.53
2023-05-05T03:58:05.738Z,99730.22
2023-05-05T04:00:34.270Z,99724.84
2023-05-05T04:03:01.817Z,99723.59
2023-05-05T04:05:29.383Z,99732.28
2023-05-05T04:07:57.802Z,99732.44
2023-05-05T04:10:25.339Z,99737.75
2023-05-05T04:12:54.184Z,99725.53
2023-05-05T04:15:21.849Z,99731.72
2023-05-05T04:17:49.361Z,99741.75
2023-05-05T04:20:16.916Z,99742.28
2023-05-05T04:22:44.509Z,99743.13
2023-05-05T04:25:11.948Z,99741.22
2023-05-05T04:27:39.373Z,99736.22
2023-05-05T04:30:10.716Z,99742.31
2023-05-05T04:32:38.254Z,99742.16
2023-05-05T04:35:06.512Z,99746.09
2023-05-05T04:37:34.103Z,99752.91
2023-05-05T04:40:01.573Z,99748.63
2023-05-05T04:42:29.049Z,99748.00
2023-05-05T04:44:56.530Z,99747.69
2023-05-05T04:47:25.492Z,99747.97
2023-05-05T04:49:55.262Z,99749.31
2023-05-05T04:52:22.786Z,99756.63
2023-05-05T04:54:50.494Z,99759.09
2023-05-05T04:57:17.956Z,99762.91
2023-05-05T04:59:45.407Z,99764.06
2023-05-05T05:02:12.950Z,99765.81
2023-05-05T05:04:41.926Z,99766.91
2023-05-05T05:07:09.371Z,99773.09
2023-05-05T05:09:36.889Z,99772.69
2023-05-05T05:12:05.786Z,99780.28
2023-05-05T05:14:37.669Z,99774.56
2023-05-05T05:17:05.340Z,99781.75
2023-05-05T05:19:32.949Z,99790.09
2023-05-05T05:22:01.762Z,99791.41
2023-05-05T05:24:29.892Z,99789.47
2023-05-05T05:26:57.353Z,99785.06
2023-05-05T05:29:24.784Z,99789.38
2023-05-05T05:31:52.217Z,99798.53
2023-05-05T05:34:19.679Z,99798.91
2023-05-05T05:36:47.151Z,99798.78
2023-05-05T05:39:15.946Z,99798.22
2023-05-05T05:41:43.409Z,99806.03
2023-05-05T05:44:10.860Z,99805.56
2023-05-05T05:46:38.332Z,99809.22
2023-05-05T05:49:05.803Z,99804.72
2023-05-05T05:51:33.267Z,99810.81
2023-05-05T05:54:00.703Z,99816.19
2023-05-05T05:56:29.480Z,99811.44
2023-05-05T05:58:56.975Z,99814.00
2023-05-05T06:01:24.423Z,99809.63
2023-05-05T06:03:51.954Z,99805.56
2023-05-05T06:06:19.591Z,99812.31
2023-05-05T06:08:47.042Z,99816.47
2023-05-05T06:11:14.508Z,99807.06
2023-05-05T06:13:43.304Z,99813.91
2023-05-05T06:16:10.815Z,99819.66
2023-05-05T06:18:38.331Z,99816.72
2023-05-05T06:21:06.607Z,99816.41
2023-05-05T06:23:34.082Z,99813.78
2023-05-05T06:26:01.564Z,99818.19
2023-05-05T06:28:29.016Z,99818.94
2023-05-05T06:30:57.856Z,99834.00
2023-05-05T06:33:25.338Z,99834.13
2023-05-05T06:35:53.068Z,99823.84
2023-05-05T06:38:20.635Z,99822.13
2023-05-05T06:40:48.645Z,99817.22
2023-05-05T06:43:16.305Z,99826.75
2023-05-05T06:45:44.108Z,99827.03
2023-05-05T06:48:13.321Z,99821.38
2023-05-05T06:50:40.799Z,99824.22
2023-05-05T06:53:08.268Z,99823.09
2023-05-05T06:55:35.734Z,99818.94
2023-05-05T06:58:03.269Z,99820.88
2023-05-05T07:00:30.822Z,99825.91
2023-05-05T07:02:58.387Z,99817.97
2023-05-05T07:05:27.292Z,99823.34
2023-05-05T07:07:55.736Z,99831.88
2023-05-05T07:10:24.736Z,99838.66
2023-05-05T07:12:54.633Z,99837.06
2023-05-05T07:15:28.769Z,99836.69
2023-05-05T07:17:57.307Z,99827.38
2023-05-05T07:20:25.092Z,99831.03
2023-05-05T07:22:54.000Z,99838.41
2023-05-05T07:25:22.240Z,99845.03
2023-05-05T07:27:49.818Z,99852.19
2023-05-05T07:30:19.113Z,99860.47
2023-05-05T07:32:47.143Z,99865.84
2023-05-05T07:35:14.880Z,99866.41
2023-05-05T07:37:42.370Z,99875.94
2023-05-05T07:40:12.087Z,99877.66
2023-05-05T07:42:39.595Z,99882.50
2023-05-05T07:45:08.034Z,99877.84
2023-05-05T07:47:35.626Z,99881.44
2023-05-05T07:50:03.284Z,99877.38
2023-05-05T07:52:45.112Z,99884.47
2023-05-05T07:55:16.979Z,99883.78
2023-05-05T07:57:44.474Z,99884.25
2023-05-05T08:00:13.796Z,99889.13
2023-05-05T08:02:41.643Z,99887.72
2023-05-05T08:05:10.061Z,99890.09
2023-05-05T08:07:41.108Z,99877.81
2023-05-05T08:10:10.256Z,99894.56
2023-05-05T08:12:39.504Z,99887.19
2023-05-05T08:15:08.119Z,99897.19
2023-05-05T08:17:47.120Z,99894.03
2023-05-05T08:20:14.736Z,99898.50
2023-05-05T08:22:42.794Z,99890.81
2023-05-05T08:25:11.434Z,99896.22
2023-05-05T08:27:41.314Z,99893.97
2023-05-05T08:30:10.009Z,99893.81
2023-05-05T08:32:38.233Z,99893.38
2023-05-05T08:35:07.259Z,99891.75
2023-05-05T08:37:35.170Z,99891.06
2023-05-05T08:40:03.265Z,99888.38
2023-05-05T08:42:38.117Z,99891.63
2023-05-05T08:45:10.464Z,99887.97
2023-05-05T08:47:39.523Z,99890.69
2023-05-05T08:50:10.852Z,99887.34
2023-05-05T08:52:40.424Z,99878.16
2023-05-05T08:55:15.365Z,99880.63
2023-05-05T08:57:46.907Z,99880.34
2023-05-05T09:00:18.951Z,99878.03
2023-05-05T09:02:47.770Z,99881.75
2023-05-05T09:05:15.461Z,99873.72
2023-05-05T09:07:43.874Z,99886.59
2023-05-05T09:10:13.025Z,99880.63
2023-05-05T09:12:41.270Z,99888.50
2023-05-05T09:15:10.097Z,99876.25
2023-05-05T09:17:39.926Z,99877.50
2023-05-05T09:20:09.279Z,99877.28
2023-05-05T09:22:38.269Z,99882.25
2023-05-05T09:25:06.908Z,99886.88
2023-05-05T09:27:38.661Z,99887.88
2023-05-05T09:30:07.015Z,99886.00
2023-05-05T09:32:46.344Z,99887.59
2023-05-05T09:35:14.305Z,99889.28
2023-05-05T09:37:41.861Z,99897.56
2023-05-05T09:40:10.778Z,99882.28
2023-05-05T09:42:38.827Z,99897.09
2023-05-05T09:45:25.885Z,99890.69
2023-05-05T09:47:59.761Z,99892.13
2023-05-05T09:50:30.543Z,99895.38
2023-05-05T09:53:00.523Z,99894.06
2023-05-05T09:55:28.225Z,99889.63
2023-05-05T09:57:55.814Z,99885.16
2023-05-05T10:00:38.847Z,99882.16
2023-05-05T10:03:07.702Z,99886.38
2023-05-05T10:05:48.121Z,99881.25
2023-05-05T10:08:15.679Z,99895.22
2023-05-05T10:10:57.274Z,99885.56
2023-05-05T10:13:25.406Z,99886.88
2023-05-05T10:15:54.710Z,99880.09
2023-05-05T10:18:24.860Z,99880.69
2023-05-05T10:20:59.053Z,99884.56
2023-05-05T10:23:35.460Z,99886.47
2023-05-05T10:26:05.391Z,99868.84
2023-05-05T10:28:34.647Z,99869.69
2023-05-05T10:31:12.858Z,99862.84
2023-05-05T10:33:55.233Z,99863.38
2023-05-05T10:36:24.384Z,99854.69
2023-05-05T10:38:56.032Z,99859.13
2023-05-05T10:41:24.360Z,99852.94
2023-05-05T10:43:53.648Z,99852.50
2023-05-05T10:46:21.190Z,99852.34
2023-05-05T10:48:56.050Z,99838.16
2023-05-05T10:51:39.553Z,99844.28
2023-05-05T10:54:13.123Z,99838.28
2023-05-05T10:56:42.949Z,99834.06
2023-05-05T10:59:40.151Z,99825.72
2023-05-05T11:02:24.522Z,99824.44
2023-05-05T11:05:10.502Z,99827.53
2023-05-05T11:07:38.699Z,99819.13
2023-05-05T11:10:08.130Z,99819.44
2023-05-05T11:13:09.098Z,99813.97
2023-05-05T11:15:40.358Z,99805.69
2023-05-05T11:18:08.577Z,99810.22
2023-05-05T11:21:08.931Z,99802.00
2023-05-05T11:23:36.706Z,99799.94
2023-05-05T11:26:04.287Z,99793.31
2023-05-05T11:28:32.343Z,99783.69
2023-05-05T11:31:19.895Z,99789.66
2023-05-05T11:33:47.658Z,99784.88
2023-05-05T11:36:17.806Z,99787.41
2023-05-05T11:39:02.282Z,99782.03
2023-05-05T11:41:56.521Z,99786.53
2023-05-05T11:44:31.773Z,99779.34
2023-05-05T11:47:29.102Z,99772.88
2023-05-05T11:49:56.979Z,99778.47
2023-05-05T11:52:30.211Z,99785.00
2023-05-05T11:55:03.575Z,99782.28
2023-05-05T11:57:31.693Z,99779.78
2023-05-05T12:00:01.281Z,99776.13
2023-05-05T12:02:30.470Z,99782.41
2023-05-05T12:04:59.470Z,99786.34
2023-05-05T12:07:29.776Z,99794.94
2023-05-05T12:09:57.605Z,99786.19
2023-05-05T12:12:36.207Z,99793.00
2023-05-05T12:15:04.340Z,99794.31
2023-05-05T12:17:43.736Z,99800.88
2023-05-05T12:20:13.102Z,99806.25
2023-05-05T12:22:42.467Z,99805.63
2023-05-05T12:25:10.782Z,99802.22
2023-05-05T12:27:38.608Z,99823.81
2023-05-05T12:30:14.823Z,99841.91
2023-05-05T12:32:42.741Z,99846.41
2023-05-05T12:35:11.164Z,99865.00
2023-05-05T12:37:39.331Z,99872.00
2023-05-05T12:40:29.247Z,99884.59
2023-05-05T12:42:58.079Z,99874.56
2023-05-05T12:45:25.642Z,99877.00
2023-05-05T12:47:53.356Z,99886.31
2023-05-05T12:50:30.795Z,99875.56
2023-05-05T12:52:58.457Z,99889.03
2023-05-05T12:55:36.568Z,99873.09
2023-05-05T12:58:05.398Z,99870.16
2023-05-05T13:00:33.128Z,99834.09
2023-05-05T13:03:00.682Z,99819.28
2023-05-05T13:05:32.581Z,99811.06
2023-05-05T13:08:00.207Z,99823.44
2023-05-05T13:10:28.167Z,99817.28
2023-05-05T13:12:56.638Z,99808.31
2023-05-05T13:15:25.844Z,99796.81
2023-05-05T13:18:00.120Z,99790.50
2023-05-05T13:20:27.769Z,99793.69
2023-05-05T13:22:55.328Z,99788.91
2023-05-05T13:25:22.779Z,99806.13
2023-05-05T13:27:50.271Z,99813.28
2023-05-05T13:30:17.713Z,99817.31
2023-05-05T13:32:46.564Z,99817.81
2023-05-05T13:35:16.203Z,99819.78
2023-05-05T13:37:44.261Z,99817.09
2023-05-05T13:40:13.265Z,99816.81
2023-05-05T13:42:40.965Z,99812.91
2023-05-05T13:45:09.457Z,99813.81
2023-05-05T13:47:37.086Z,99816.19
2023-05-05T13:50:07.244Z,99809.59
2023-05-05T13:52:34.711Z,99812.97
2023-05-05T13:55:02.732Z,99805.66
2023-05-05T13:57:30.186Z,99799.94
2023-05-05T13:59:57.829Z,99789.09
2023-05-05T14:02:25.525Z,99788.44
2023-05-05T14:04:52.995Z,99790.22
2023-05-05T14:07:21.826Z,99784.94
2023-05-05T14:09:49.294Z,99789.69
2023-05-05T14:12:16.807Z,99784.00
2023-05-05T14:14:44.293Z,99783.03
2023-05-05T14:17:12.726Z,99785.47
2023-05-05T14:19:40.171Z,99785.31
2023-05-05T14:22:07.685Z,99786.75
2023-05-05T14:24:36.452Z,99785.03
2023-05-05T14:27:04.318Z,99782.38
2023-05-05T14:29:31.854Z,99791.38
2023-05-05T14:31:59.367Z,99791.34
2023-05-05T14:34:26.845Z,99789.75
2023-05-05T14:36:54.296Z,99790.03
2023-05-05T14:39:21.732Z,99793.88
2023-05-05T14:41:50.866Z,99785.53
2023-05-05T14:44:18.371Z,99789.00
2023-05-05T14:46:46.222Z,99780.16
2023-05-05T14:49:14.281Z,99778.84
2023-05-05T14:51:42.705Z,99786.53
2023-05-05T14:54:24.116Z,99781.56
2023-05-05T14:56:56.629Z,99788.16
2023-05-05T14:59:24.219Z,99782.66
2023-05-05T15:01:51.759Z,99774.91
2023-05-05T15:04:19.284Z,99765.47
2023-05-05T15:06:46.745Z,99772.53
2023-05-05T15:09:14.210Z,99775.13
2023-05-05T15:11:41.926Z,99785.81
2023-05-05T15:14:10.744Z,99791.78
2023-05-05T15:16:38.531Z,99782.22
2023-05-05T15:19:06.077Z,99781.97
2023-05-05T15:21:33.564Z,99791.50
2023-05-05T15:24:01.052Z,99801.19
2023-05-05T15:26:28.515Z,99802.38
2023-05-05T15:28:55.991Z,99797.88
2023-05-05T15:31:24.983Z,99806.53
2023-05-05T15:33:52.477Z,99811.47
2023-05-05T15:36:22.417Z,99821.72
2023-05-05T15:38:50.075Z,99845.75
2023-05-05T15:41:17.554Z,99850.06
2023-05-05T15:43:45.017Z,99838.66
2023-05-05T15:46:12.547Z,99850.50
2023-05-05T15:48:41.325Z,99864.91
2023-05-05T15:51:08.778Z,99871.28
2023-05-05T15:53:36.337Z,99879.03
2023-05-05T15:56:03.788Z,99862.59
2023-05-05T15:58:31.236Z,99872.91
2023-05-05T16:00:58.716Z,99870.75
2023-05-05T16:03:26.315Z,99880.66
2023-05-05T16:05:55.170Z,99890.53
2023-05-05T16:08:22.672Z,99901.94
2023-05-05T16:10:50.139Z,99906.97
2023-05-05T16:13:17.639Z,99907.25
2023-05-05T16:15:45.277Z,99901.00
2023-05-05T16:18:12.872Z,99906.56
2023-05-05T16:20:40.307Z,99908.84
2023-05-05T16:23:09.106Z,99912.34
2023-05-05T16:25:36.580Z,99908.63
2023-05-05T16:28:04.340Z,99902.00
2023-05-05T16:30:31.778Z,99892.06
2023-05-05T16:32:59.322Z,99881.97
2023-05-05T16:35:27.020Z,99887.44
2023-05-05T16:37:54.883Z,99879.47
2023-05-05T16:40:23.760Z,99886.38
2023-05-05T16:42:51.189Z,99877.81
2023-05-05T16:45:18.804Z,99873.47
2023-05-05T16:47:46.261Z,99867.28
2023-05-05T16:50:13.826Z,99877.19
2023-05-05T16:52:41.331Z,99868.50
2023-05-05T16:55:09.782Z,99862.94
2023-05-05T16:57:38.814Z,99867.38
2023-05-05T17:00:09.112Z,99868.66
2023-05-05T17:02:36.714Z,99856.41
2023-05-05T17:05:04.471Z,99860.38
2023-05-05T17:07:32.051Z,99857.13
2023-05-05T17:09:59.568Z,99863.19
2023-05-05T17:12:27.025Z,99858.47
2023-05-05T17:14:55.870Z,99860.88
2023-05-05T17:17:23.513Z,99856.63
2023-05-05T17:19:50.963Z,99857.00
2023-05-05T17:22:18.445Z,99860.53
2023-05-05T17:24:45.950Z,99852.81
2023-05-05T17:27:13.666Z,99850.38
2023-05-05T17:29:41.378Z,99854.44
2023-05-05T17:32:10.378Z,99850.13
2023-05-05T17:34:37.953Z,99851.97
2023-05-05T17:37:05.463Z,99848.75
2023-05-05T17:39:33.659Z,99851.28
2023-05-05T17:42:01.152Z,99853.78
2023-05-05T17:44:28.650Z,99849.94
2023-05-05T17:46:56.237Z,99859.81
2023-05-05T17:49:25.492Z,99870.25
2023-05-05T17:51:53.016Z,99866.19
2023-05-05T17:54:20.931Z,99860.72
2023-05-05T17:56:48.474Z,99862.19
2023-05-05T17:59:15.931Z,99856.06
2023-05-05T18:01:43.675Z,99861.91
2023-05-05T18:04:11.141Z,99866.28
2023-05-05T18:06:39.940Z,99867.66
2023-05-05T18:09:09.166Z,99869.47
2023-05-05T18:11:37.927Z,99866.06
2023-05-05T18:14:05.402Z,99875.06
2023-05-05T18:16:33.104Z,99872.59
2023-05-05T18:19:00.640Z,99868.53
2023-05-05T18:21:29.733Z,99864.69
2023-05-05T18:24:07.712Z,99866.63
2023-05-05T18:26:48.334Z,99865.97
2023-05-05T18:29:16.443Z,99864.66
2023-05-05T18:31:44.555Z,99867.03
2023-05-05T18:34:12.266Z,99857.66
2023-05-05T18:36:39.744Z,99860.53
2023-05-05T18:39:08.569Z,99868.16
2023-05-05T18:41:37.001Z,99873.66
2023-05-05T18:44:04.653Z,99868.09
2023-05-05T18:46:32.195Z,99870.88
2023-05-05T18:49:00.447Z,99873.91
2023-05-05T18:51:28.293Z,99882.06
2023-05-05T18:53:55.922Z,99887.47
2023-05-05T18:56:24.777Z,99888.19
2023-05-05T18:58:52.206Z,99887.09
2023-05-05T19:01:20.136Z,99888.16
2023-05-05T19:03:48.638Z,99885.56
2023-05-05T19:06:16.411Z,99893.91
2023-05-05T19:08:45.071Z,99892.38
2023-05-05T19:11:14.620Z,99881.22
2023-05-05T19:13:43.453Z,99880.22
2023-05-05T19:16:11.695Z,99878.75
2023-05-05T19:18:39.872Z,99876.03
2023-05-05T19:21:07.493Z,99881.56
2023-05-05T19:23:36.003Z,99877.75
2023-05-05T19:26:05.553Z,99882.88
2023-05-05T19:28:33.342Z,99877.75
2023-05-05T19:31:02.180Z,99880.13
2023-05-05T19:33:29.668Z,99879.66
2023-05-05T19:35:57.124Z,99885.69
2023-05-05T19:38:24.590Z,99890.78
2023-05-05T19:40:53.901Z,99894.69
2023-05-05T19:43:21.349Z,99892.63
2023-05-05T19:45:48.847Z,99891.41
2023-05-05T19:48:17.661Z,99885.78
2023-05-05T19:50:45.298Z,99893.16
2023-05-05T19:53:12.757Z,99892.25
2023-05-05T19:55:40.198Z,99894.16
2023-05-05T19:58:07.774Z,99895.16
2023-05-05T20:00:35.632Z,99897.94
2023-05-05T20:03:03.228Z,99892.06
2023-05-05T20:05:32.071Z,99887.28
2023-05-05T20:07:59.529Z,99881.97
2023-05-05T20:10:27.007Z,99890.16
2023-05-05T20:12:54.594Z,99890.63
2023-05-05T20:15:22.447Z,99892.47
2023-05-05T20:17:50.396Z,99898.81
2023-05-05T20:20:19.968Z,99904.47
2023-05-05T20:22:49.990Z,99901.84
2023-05-05T20:25:17.880Z,99904.72
2023-05-05T20:27:45.691Z,99899.25
2023-05-05T20:30:14.319Z,99894.91
2023-05-05T20:32:41.914Z,99895.59
2023-05-05T20:35:12.268Z,99888.06
2023-05-05T20:37:39.743Z,99889.53
2023-05-05T20:40:10.336Z,99896.63
2023-05-05T20:42:38.086Z,99902.03
2023-05-05T20:45:06.937Z,99907.34
2023-05-05T20:47:35.043Z,99904.56
2023-05-05T20:50:02.621Z,99920.69
2023-05-05T20:52:30.151Z,99913.28
2023-05-05T20:54:57.602Z,99913.38
2023-05-05T20:57:26.655Z,99908.16
2023-05-05T20:59:54.106Z,99909.19
2023-05-05T21:02:21.715Z,99909.00
2023-05-05T21:04:49.225Z,99908.06
2023-05-05T21:07:16.707Z,99905.63
2023-05-05T21:09:46.907Z,99905.81
2023-05-05T21:12:14.380Z,99905.72
2023-05-05T21:14:45.457Z,99903.91
2023-05-05T21:17:12.967Z,99895.72
2023-05-05T21:19:41.128Z,99904.00
2023-05-05T21:22:08.582Z,99905.47
2023-05-05T21:24:36.076Z,99897.75
2023-05-05T21:27:03.549Z,99902.50
2023-05-05T21:29:34.154Z,99908.06
2023-05-05T21:32:03.044Z,99913.84
2023-05-05T21:34:30.529Z,99914.63
2023-05-05T21:36:58.081Z,99911.22
2023-05-05T21:39:25.680Z,99909.09
2023-05-05T21:41:53.146Z,99907.28
2023-05-05T21:44:21.025Z,99902.50
2023-05-05T21:46:48.711Z,99905.47
2023-05-05T21:49:18.763Z,99900.22
2023-05-05T21:51:46.649Z,99898.00
2023-05-05T21:54:14.144Z,99892.97
2023-05-05T21:56:41.743Z,99896.75
2023-05-05T21:59:09.272Z,99902.09
2023-05-05T22:01:36.835Z,99902.97
2023-05-05T22:04:04.616Z,99902.66
2023-05-05T22:06:33.472Z,99902.28
2023-05-05T22:09:01.168Z,99898.91
2023-05-05T22:11:28.643Z,99907.13
2023-05-05T22:13:56.260Z,99905.78
2023-05-05T22:16:23.773Z,99909.38
2023-05-05T22:18:51.309Z,99904.75
2023-05-05T22:21:18.949Z,99909.38
2023-05-05T22:23:47.787Z,99907.16
2023-05-05T22:26:15.345Z,99902.09
2023-05-05T22:28:42.830Z,99901.78
2023-05-05T22:31:10.317Z,99907.66
2023-05-05T22:33:37.893Z,99910.09
2023-05-05T22:36:05.562Z,99915.63
2023-05-05T22:38:33.026Z,99909.75
2023-05-05T22:41:01.900Z,99916.06
2023-05-05T22:43:29.376Z,99913.31
2023-05-05T22:45:57.825Z,99917.13
2023-05-05T22:48:25.349Z,99917.25
2023-05-05T22:50:52.792Z,99916.47
2023-05-05T22:53:20.390Z,99916.28
2023-05-05T22:55:47.839Z,99923.97
2023-05-05T22:58:16.626Z,99916.75
2023-05-05T23:00:44.134Z,99916.38
2023-05-05T23:03:12.085Z,99913.97
2023-05-05T23:05:39.541Z,99913.88
2023-05-05T23:08:07.037Z,99916.81
2023-05-05T23:10:34.568Z,99915.69
2023-05-05T23:13:02.068Z,99910.44
2023-05-05T23:15:30.989Z,99917.69
2023-05-05T23:17:58.488Z,99920.09
2023-05-05T23:20:26.164Z,99922.31
2023-05-05T23:22:53.595Z,99923.56
2023-05-05T23:25:21.044Z,99913.84
2023-05-05T23:27:48.742Z,99906.69
2023-05-05T23:30:16.555Z,99912.25
2023-05-05T23:32:45.968Z,99904.97
2023-05-05T23:35:13.553Z,99910.66
2023-05-05T23:37:41.006Z,99909.00
2023-05-05T23:40:09.788Z,99915.56
2023-05-05T23:42:37.248Z,99909.66
2023-05-05T23:45:05.222Z,99910.66
2023-05-05T23:47:32.739Z,99905.78
2023-05-05T23:50:01.831Z,99906.06
2023-05-05T23:52:29.301Z,99915.63
2023-05-05T23:54:56.778Z,99913.59
2023-05-05T23:57:24.309Z,99906.63
2023-05-05T23:59:51.747Z,99909.22
